Terminal Aerodrome Forecast
Issued by NWS

Home | Current Version | Previous Version | Text Only | Print | Product List | Glossary On
Versions: 1 2 3 4 5 6 7 8 9 10 11 12 13 14 15 16 17 18 19 20 21 22 23 24 25 26
142
FTUS46 KPQR 200532
TAFONP
TAF
KONP 200532Z 2006/2106 19025G40KT 3SM RA BR SCT008 BKN015 OVC025
     FM200900 19023G35KT 2SM RA BR BKN008 OVC015
     FM201200 20018G28KT 5SM -RA BR SCT008 OVC015
     FM201500 22010KT P6SM -SHRA SCT008 BKN015 OVC025
     FM202200 VRB04KT P6SM SCT015 OVC035=

USA.gov is the U.S. government's official web portal to all federal, state and local government web resources and services.